Time;durP1;ratioP1;P1;durP2;ratioP2;P2;SDS_P1;SDS_P2;PMS_P1;PMS_P2;Temp;Humidity;BMP_temperature;BMP_pressure;BME280_temperature;BME280_humidity;BME280_pressure;Samples;Min_cycle;Max_cycle;Signal;HPM_P1;HPM_P2
2022/01/05 00:01:03;;;;;;;7.65;2.67;;;;;;;5.36;81.66;98656.00;5090594;28;20049;-84
2022/01/05 00:03:31;;;;;;;6.38;2.45;;;;;;;5.42;81.95;98661.03;5089777;28;20052;-85
2022/01/05 00:05:59;;;;;;;6.60;2.10;;;;;;;5.46;80.73;98662.00;5090488;28;20060;-85
2022/01/05 00:08:26;;;;;;;6.43;2.47;;;;;;;5.48;80.13;98648.69;5086896;28;20048;-85
2022/01/05 00:10:54;;;;;;;8.02;1.95;;;;;;;5.55;80.03;98659.22;5070646;28;20059;-85
2022/01/05 00:13:21;;;;;;;10.07;2.95;;;;;;;5.57;80.13;98664.44;5069425;28;20045;-85
2022/01/05 00:15:49;;;;;;;6.95;1.92;;;;;;;5.60;79.96;98659.06;5069718;28;20053;-84
2022/01/05 00:18:16;;;;;;;7.03;2.22;;;;;;;5.55;79.55;98662.00;5069324;28;20060;-85
2022/01/05 00:20:45;;;;;;;6.28;2.45;;;;;;;5.52;77.82;98675.63;5069170;28;20079;-85
2022/01/05 00:23:12;;;;;;;5.40;2.20;;;;;;;5.51;74.59;98674.81;5069423;28;20486;-85
2022/01/05 00:25:40;;;;;;;7.80;2.00;;;;;;;5.47;74.28;98673.84;5069090;28;20053;-85
2022/01/05 00:28:07;;;;;;;9.45;2.20;;;;;;;5.46;75.10;98677.75;5068901;28;20053;-85
2022/01/05 00:30:34;;;;;;;7.05;2.65;;;;;;;5.43;74.40;98684.72;5068626;28;20059;-85
2022/01/05 00:33:02;;;;;;;4.22;2.20;;;;;;;5.45;74.72;98682.44;5068406;28;20057;-85
2022/01/05 00:35:29;;;;;;;6.45;2.22;;;;;;;5.40;74.71;98685.38;5069758;28;20055;-85
2022/01/05 00:37:58;;;;;;;4.82;1.95;;;;;;;5.43;74.59;98689.44;5067435;28;20049;-86
2022/01/05 00:40:26;;;;;;;5.10;2.07;;;;;;;5.49;73.47;98688.16;5066634;28;20053;-84
2022/01/05 00:42:53;;;;;;;5.93;2.42;;;;;;;5.33;73.82;98690.56;5069403;28;20063;-84
2022/01/05 00:45:20;;;;;;;5.97;2.50;;;;;;;5.33;74.21;98684.22;5069189;28;20059;-85
2022/01/05 00:47:48;;;;;;;4.88;1.90;;;;;;;5.33;73.55;98696.09;5069307;28;20048;-85
2022/01/05 00:50:15;;;;;;;6.53;2.60;;;;;;;5.38;73.91;98695.94;5069475;28;20052;-85
2022/01/05 00:52:42;;;;;;;5.45;2.53;;;;;;;5.37;73.40;98699.81;5067958;28;20049;-85
2022/01/05 00:55:11;;;;;;;6.88;2.47;;;;;;;5.35;73.07;98688.28;5067161;28;20064;-86
2022/01/05 00:57:39;;;;;;;7.20;2.97;;;;;;;4.98;73.77;98690.53;5067129;28;20063;-86
2022/01/05 01:00:07;;;;;;;4.40;2.72;;;;;;;5.18;73.86;98693.81;5067535;28;20056;-84
2022/01/05 01:02:35;;;;;;;7.78;3.17;;;;;;;5.20;73.85;98694.28;5067231;28;20527;-85
2022/01/05 01:05:03;;;;;;;7.18;3.10;;;;;;;5.13;73.96;98696.72;5067642;28;20059;-85
2022/01/05 01:07:30;;;;;;;5.97;3.10;;;;;;;5.00;74.79;98698.50;5067481;28;20056;-84
2022/01/05 01:09:57;;;;;;;6.50;2.80;;;;;;;4.94;74.70;98702.53;5069069;28;20053;-85
2022/01/05 01:12:26;;;;;;;7.57;3.13;;;;;;;4.94;74.51;98688.72;5067358;28;20053;-85
2022/01/05 01:14:54;;;;;;;5.85;2.92;;;;;;;4.88;74.36;98686.09;5067998;28;20048;-85
2022/01/05 01:17:22;;;;;;;5.78;3.20;;;;;;;4.88;74.71;98691.63;5067361;28;20468;-85
2022/01/05 01:19:49;;;;;;;4.65;2.78;;;;;;;4.87;73.65;98694.69;5067653;28;20056;-85
2022/01/05 01:22:16;;;;;;;5.90;2.80;;;;;;;4.77;73.96;98701.34;5067123;28;20053;-86
2022/01/05 01:24:44;;;;;;;6.32;3.25;;;;;;;4.72;74.34;98697.91;5067396;28;20052;-85
2022/01/05 01:27:11;;;;;;;8.23;3.22;;;;;;;4.57;74.89;98701.91;5066617;28;20063;-85
2022/01/05 01:29:40;;;;;;;6.68;3.22;;;;;;;4.68;74.91;98701.31;5066031;28;20053;-85
2022/01/05 01:32:08;;;;;;;6.88;3.40;;;;;;;4.47;75.41;98694.72;5068207;28;20045;-85
2022/01/05 01:34:35;;;;;;;6.05;3.20;;;;;;;4.59;74.78;98694.13;5068526;28;20048;-85
2022/01/05 01:37:03;;;;;;;6.53;3.95;;;;;;;4.59;74.53;98699.66;5068242;28;20067;-85
2022/01/05 01:39:31;;;;;;;4.75;3.03;;;;;;;4.58;74.03;98709.88;5067626;28;20057;-85
2022/01/05 01:41:58;;;;;;;9.75;4.13;;;;;;;4.57;74.52;98715.69;5066356;28;20539;-85
2022/01/05 01:44:25;;;;;;;8.73;4.70;;;;;;;4.41;74.58;98710.59;5066464;28;20049;-85
2022/01/05 01:46:54;;;;;;;9.63;4.30;;;;;;;4.42;75.15;98717.72;5066751;28;20049;-84
2022/01/05 01:49:22;;;;;;;6.25;3.92;;;;;;;4.50;75.02;98713.41;5067221;28;20492;-84
2022/01/05 01:51:49;;;;;;;7.55;4.65;;;;;;;4.48;74.65;98710.94;5067618;28;20049;-84
2022/01/05 01:54:16;;;;;;;6.80;4.35;;;;;;;4.36;75.42;98723.69;5068193;28;20037;-84
2022/01/05 01:56:47;;;;;;;7.20;4.80;;;;;;;4.25;75.81;98720.41;5067565;28;20116;-84
2022/01/05 01:59:15;;;;;;;11.50;5.57;;;;;;;4.33;75.88;98724.34;5068156;28;20053;-85
2022/01/05 02:01:43;;;;;;;8.40;5.10;;;;;;;4.17;76.63;98716.47;5067488;28;20059;-84
2022/01/05 02:04:11;;;;;;;8.07;5.05;;;;;;;4.31;75.60;98716.38;5066959;28;20061;-84
2022/01/05 02:06:39;;;;;;;9.43;5.43;;;;;;;4.29;76.41;98726.91;5068062;28;20044;-85
2022/01/05 02:09:06;;;;;;;7.47;4.63;;;;;;;4.35;75.83;98719.34;5067745;28;20056;-85
2022/01/05 02:11:38;;;;;;;10.52;4.82;;;;;;;4.43;75.58;98719.38;5067298;28;20053;-84
2022/01/05 02:14:06;;;;;;;8.15;4.97;;;;;;;4.13;76.96;98717.41;5068801;28;20052;-84
2022/01/05 02:16:35;;;;;;;9.77;5.05;;;;;;;4.30;76.33;98719.44;5065137;28;20053;-84
2022/01/05 02:19:02;;;;;;;10.32;5.85;;;;;;;4.28;76.40;98728.03;5067615;28;20052;-85
2022/01/05 02:21:34;;;;;;;12.43;6.55;;;;;;;4.29;76.62;98732.44;5067202;28;20052;-85
2022/01/05 02:24:03;;;;;;;11.52;5.93;;;;;;;4.35;75.88;98733.13;5066877;28;20057;-85
2022/01/05 02:26:30;;;;;;;11.38;5.40;;;;;;;4.32;76.65;98718.00;5067592;28;20060;-85
2022/01/05 02:28:58;;;;;;;12.40;6.57;;;;;;;4.38;76.32;98718.69;5065194;28;20056;-85
2022/01/05 02:31:25;;;;;;;13.30;6.82;;;;;;;4.30;76.31;98720.25;5063860;28;20049;-85
2022/01/05 02:33:52;;;;;;;9.90;5.93;;;;;;;4.38;75.30;98719.50;5064294;28;20057;-85
2022/01/05 02:36:21;;;;;;;12.48;7.78;;;;;;;4.36;75.72;98727.25;5063358;28;20053;-86
2022/01/05 02:38:51;;;;;;;11.32;7.32;;;;;;;4.28;75.94;98730.78;5063501;28;20056;-86
2022/01/05 02:41:19;;;;;;;11.25;7.38;;;;;;;4.26;76.45;98735.78;5061256;28;20413;-86
2022/01/05 02:43:47;;;;;;;17.67;8.23;;;;;;;4.22;76.78;98741.16;5063181;28;20066;-85
2022/01/05 02:46:17;;;;;;;14.13;7.97;;;;;;;4.37;76.40;98737.19;5063158;28;20057;-85
2022/01/05 02:48:44;;;;;;;14.98;7.43;;;;;;;4.43;76.45;98752.44;5063815;28;20072;-85
2022/01/05 02:51:13;;;;;;;14.82;8.98;;;;;;;4.52;76.05;98748.94;5063526;28;20059;-85
2022/01/05 02:53:42;;;;;;;13.50;7.32;;;;;;;4.56;76.24;98752.69;5065336;28;20071;-84
2022/01/05 02:56:12;;;;;;;16.60;8.75;;;;;;;4.56;76.29;98755.44;5065794;28;20065;-84
2022/01/05 02:58:39;;;;;;;;;;;;;;;4.43;76.57;98755.22;5064819;28;20409;-85
2022/01/05 03:01:07;;;;;;;16.10;9.05;;;;;;;4.53;75.84;98750.53;5065081;28;19927;-85
2022/01/05 03:03:37;;;;;;;18.52;10.57;;;;;;;4.51;76.17;98755.56;5065849;28;20037;-84
2022/01/05 03:06:05;;;;;;;15.68;9.57;;;;;;;4.59;75.73;98757.56;5062409;28;20059;-86
2022/01/05 03:08:33;;;;;;;23.27;10.32;;;;;;;4.50;76.46;98770.50;5059398;28;20057;-86
2022/01/05 03:11:01;;;;;;;20.13;11.65;;;;;;;4.35;76.58;98772.50;5058386;28;20057;-86
2022/01/05 03:13:29;;;;;;;22.75;11.45;;;;;;;4.58;75.85;98764.22;5057998;28;20053;-87
2022/01/05 03:15:57;;;;;;;19.25;11.45;;;;;;;4.58;76.10;98770.53;5057955;28;20072;-86
2022/01/05 03:18:24;;;;;;;18.02;11.70;;;;;;;4.55;75.98;98781.38;5058051;28;20049;-85
2022/01/05 03:20:52;;;;;;;23.92;11.55;;;;;;;4.57;75.41;98777.16;5057999;28;20056;-86
2022/01/05 03:23:19;;;;;;;19.85;12.30;;;;;;;4.62;75.08;98787.22;5057142;28;20056;-86
2022/01/05 03:25:46;;;;;;;21.95;13.23;;;;;;;4.52;75.90;98793.03;5058047;28;20505;-86
2022/01/05 03:28:14;;;;;;;18.50;11.45;;;;;;;4.65;75.21;98798.44;5061486;28;20057;-86
2022/01/05 03:30:43;;;;;;;21.05;11.13;;;;;;;4.71;75.51;98807.41;5062657;28;20052;-86
2022/01/05 03:33:11;;;;;;;21.58;11.07;;;;;;;4.67;74.46;98806.41;5062865;28;20056;-87
2022/01/05 03:35:43;;;;;;;17.75;10.88;;;;;;;4.74;74.26;98811.47;5062233;28;20493;-87
2022/01/05 03:38:11;;;;;;;23.05;11.73;;;;;;;4.68;74.44;98830.09;5062728;28;20363;-86
2022/01/05 03:40:39;;;;;;;18.55;11.20;;;;;;;4.66;74.51;98815.81;5062841;28;20068;-85
2022/01/05 03:43:08;;;;;;;20.58;12.32;;;;;;;4.74;74.30;98817.00;5062792;28;20048;-85
2022/01/05 03:45:37;;;;;;;19.83;10.80;;;;;;;4.77;73.89;98813.63;5063401;28;20052;-85
2022/01/05 03:48:08;;;;;;;21.75;11.18;;;;;;;4.65;73.43;98819.72;5062968;28;20049;-85
2022/01/05 03:50:36;;;;;;;16.55;10.10;;;;;;;4.72;73.33;98820.06;5061356;28;20046;-84
2022/01/05 03:53:05;;;;;;;17.00;10.45;;;;;;;4.74;73.54;98830.78;5062233;28;20060;-85
2022/01/05 03:55:32;;;;;;;18.20;10.77;;;;;;;4.65;72.89;98823.28;5062014;28;20069;-86
2022/01/05 03:58:00;;;;;;;18.88;11.10;;;;;;;4.40;73.09;98830.25;5062256;28;20060;-86
2022/01/05 04:00:29;;;;;;;19.20;11.48;;;;;;;4.47;72.63;98830.63;5062003;28;20049;-85
2022/01/05 04:02:57;;;;;;;19.52;10.68;;;;;;;4.55;72.79;98834.56;5061165;28;20052;-84
2022/01/05 04:05:26;;;;;;;22.38;11.23;;;;;;;4.42;72.72;98835.47;5062381;28;20060;-84
2022/01/05 04:07:53;;;;;;;14.50;10.10;;;;;;;4.34;72.48;98839.78;5062029;28;20426;-84
2022/01/05 04:10:21;;;;;;;17.40;10.13;;;;;;;4.42;72.70;98854.75;5062500;28;20053;-86
2022/01/05 04:12:48;;;;;;;16.48;10.77;;;;;;;4.28;73.12;98852.03;5062913;28;20413;-85
2022/01/05 04:15:16;;;;;;;15.05;9.60;;;;;;;4.31;72.67;98851.44;5062024;28;20056;-85
2022/01/05 04:17:43;;;;;;;16.45;9.80;;;;;;;4.23;72.99;98850.22;5061638;28;20060;-85
2022/01/05 04:20:15;;;;;;;15.93;8.93;;;;;;;4.25;72.66;98860.97;5061887;28;20397;-85
2022/01/05 04:22:44;;;;;;;16.13;9.02;;;;;;;4.16;72.70;98865.56;5063073;28;20056;-85
2022/01/05 04:25:12;;;;;;;18.40;8.40;;;;;;;4.16;72.82;98860.06;5063258;28;20437;-84
2022/01/05 04:27:40;;;;;;;17.05;9.00;;;;;;;3.91;73.37;98865.03;5064043;28;20056;-85
2022/01/05 04:30:09;;;;;;;15.48;8.27;;;;;;;3.92;73.23;98872.16;5063063;28;20049;-84
2022/01/05 04:32:37;;;;;;;17.23;7.95;;;;;;;3.88;73.21;98878.59;5061644;28;20060;-85
2022/01/05 04:35:06;;;;;;;13.30;6.65;;;;;;;3.76;73.67;98884.63;5060885;28;20053;-84
2022/01/05 04:37:34;;;;;;;15.57;7.05;;;;;;;3.62;73.82;98890.19;5061269;28;20057;-84
2022/01/05 04:40:04;;;;;;;13.15;6.40;;;;;;;3.83;72.94;98888.63;5060879;28;20139;-83
2022/01/05 04:42:31;;;;;;;;;;;;;;;3.69;73.44;98898.81;5063820;28;20055;-84
2022/01/05 04:44:58;;;;;;;13.38;6.13;;;;;;;3.79;73.33;98892.31;5061370;28;19921;-83
2022/01/05 04:47:25;;;;;;;16.73;5.93;;;;;;;3.80;72.97;98904.94;5062581;28;20486;-82
2022/01/05 04:49:53;;;;;;;14.40;5.53;;;;;;;3.72;73.10;98902.94;5062409;28;20053;-83
2022/01/05 04:52:23;;;;;;;14.68;5.22;;;;;;;3.62;73.78;98904.75;5061292;28;20049;-86
2022/01/05 04:54:50;;;;;;;11.52;4.80;;;;;;;3.47;73.55;98918.03;5059773;28;20053;-84
2022/01/05 04:57:19;;;;;;;12.02;4.85;;;;;;;3.47;73.72;98913.34;5061587;28;20414;-83
2022/01/05 04:59:46;;;;;;;11.00;3.83;;;;;;;3.38;73.88;98915.16;5062023;28;20060;-85
2022/01/05 05:02:14;;;;;;;10.60;4.97;;;;;;;3.43;73.42;98912.31;5060766;28;20056;-84
2022/01/05 05:04:41;;;;;;;12.73;4.60;;;;;;;3.32;73.71;98917.19;5059438;28;20459;-83
2022/01/05 05:07:09;;;;;;;9.07;4.30;;;;;;;3.33;73.53;98913.31;5060876;28;20049;-84
2022/01/05 05:09:38;;;;;;;10.85;4.55;;;;;;;3.27;73.29;98917.28;5060719;28;20060;-83
2022/01/05 05:12:07;;;;;;;13.00;5.38;;;;;;;3.30;73.10;98918.59;5060581;28;20055;-82
2022/01/05 05:14:36;;;;;;;12.88;4.25;;;;;;;3.10;73.68;98920.63;5060320;28;20414;-82
2022/01/05 05:17:04;;;;;;;9.98;4.18;;;;;;;3.09;73.94;98918.16;5061005;28;20065;-84
2022/01/05 05:19:32;;;;;;;15.48;4.32;;;;;;;3.14;72.83;98920.84;5061118;28;20057;-83
2022/01/05 05:21:59;;;;;;;10.80;4.18;;;;;;;2.86;73.69;98926.28;5061704;28;20064;-84
2022/01/05 05:24:27;;;;;;;10.70;4.18;;;;;;;2.91;73.28;98917.13;5062324;28;20060;-84
2022/01/05 05:26:54;;;;;;;14.60;4.50;;;;;;;2.92;73.89;98922.34;5061499;28;20053;-84
2022/01/05 05:29:21;;;;;;;13.98;4.70;;;;;;;2.87;73.83;98919.66;5061531;28;20056;-84
2022/01/05 05:31:50;;;;;;;10.55;3.50;;;;;;;2.88;72.93;98921.31;5061030;28;20049;-85
2022/01/05 05:34:17;;;;;;;10.70;3.75;;;;;;;2.75;73.40;98924.81;5061600;28;20049;-85
2022/01/05 05:36:45;;;;;;;15.77;4.07;;;;;;;2.84;73.38;98934.84;5062101;28;20036;-84
2022/01/05 05:39:12;;;;;;;11.48;3.88;;;;;;;2.75;73.26;98930.31;5061395;28;20525;-85
2022/01/05 05:41:39;;;;;;;11.60;3.67;;;;;;;2.56;73.53;98927.59;5061048;28;20056;-85
2022/01/05 05:44:07;;;;;;;8.95;3.85;;;;;;;2.63;73.52;98933.53;5060728;28;20060;-85
2022/01/05 05:46:35;;;;;;;13.18;3.80;;;;;;;2.65;73.58;98931.31;5062254;28;20057;-85
2022/01/05 05:49:03;;;;;;;11.82;3.63;;;;;;;2.71;73.53;98943.88;5062029;28;20488;-85
2022/01/05 05:51:31;;;;;;;14.07;3.47;;;;;;;2.85;72.33;98938.41;5061451;28;20053;-85
2022/01/05 05:53:58;;;;;;;14.27;3.35;;;;;;;2.79;72.91;98932.19;5060340;28;20064;-85
2022/01/05 05:56:26;;;;;;;8.68;3.33;;;;;;;2.90;71.74;98943.81;5061212;28;20045;-85
2022/01/05 05:58:53;;;;;;;15.00;3.75;;;;;;;2.95;71.78;98931.91;5061687;28;20268;-85
2022/01/05 06:01:21;;;;;;;10.75;3.20;;;;;;;2.91;71.83;98933.63;5061537;28;20048;-84
2022/01/05 06:03:50;;;;;;;13.52;3.38;;;;;;;3.08;71.63;98933.06;5059378;28;20481;-85
2022/01/05 06:06:19;;;;;;;10.63;3.40;;;;;;;3.08;71.03;98933.88;5061311;28;20414;-85
2022/01/05 06:08:46;;;;;;;8.15;2.85;;;;;;;2.98;71.02;98934.88;5059967;28;20045;-85
2022/01/05 06:11:14;;;;;;;11.45;3.38;;;;;;;2.91;71.44;98933.63;5060985;28;20057;-85
2022/01/05 06:13:41;;;;;;;11.68;3.65;;;;;;;2.96;71.09;98930.78;5060689;28;20049;-86
2022/01/05 06:16:08;;;;;;;14.85;3.53;;;;;;;2.83;71.33;98935.13;5060889;28;20053;-85
2022/01/05 06:18:36;;;;;;;7.90;2.88;;;;;;;2.77;71.57;98933.59;5063761;28;20040;-86
2022/01/05 06:21:04;;;;;;;8.00;3.20;;;;;;;2.70;72.16;98927.66;5060814;28;20055;-84
2022/01/05 06:23:33;;;;;;;11.13;3.13;;;;;;;2.73;71.68;98927.88;5059407;28;20044;-84
2022/01/05 06:26:00;;;;;;;7.03;3.05;;;;;;;2.54;72.55;98940.81;5059306;28;20064;-85
2022/01/05 06:28:27;;;;;;;12.40;3.45;;;;;;;2.51;72.95;98944.19;5059569;28;20056;-85
2022/01/05 06:30:55;;;;;;;14.98;4.43;;;;;;;2.69;72.23;98951.59;5059441;28;20052;-85
2022/01/05 06:33:22;;;;;;;8.80;2.97;;;;;;;2.66;72.14;98943.13;5058483;28;20044;-84
2022/01/05 06:35:50;;;;;;;12.55;3.78;;;;;;;2.53;72.06;98947.44;5058893;28;20056;-86
2022/01/05 06:38:18;;;;;;;9.82;3.10;;;;;;;2.40;72.81;98954.53;5058991;28;20044;-86
2022/01/05 06:40:46;;;;;;;12.88;3.85;;;;;;;2.59;72.29;98949.00;5057796;28;20049;-86
2022/01/05 06:43:14;;;;;;;10.93;2.95;;;;;;;2.67;73.29;98955.72;5058015;28;20378;-74
2022/01/05 06:45:41;;;;;;;13.75;4.50;;;;;;;2.50;74.87;98967.28;5051724;28;20052;-74
2022/01/05 06:48:09;;;;;;;13.52;4.38;;;;;;;2.60;77.47;98958.88;5051865;28;20061;-74
2022/01/05 06:50:44;;;;;;;11.45;3.80;;;;;;;2.58;73.94;98972.94;5054014;28;20124;-87
2022/01/05 06:53:12;;;;;;;9.40;3.42;;;;;;;2.87;73.10;98966.41;5061969;28;20055;-86
2022/01/05 06:55:39;;;;;;;9.10;3.50;;;;;;;3.07;71.66;98969.91;5062473;28;20055;-87
2022/01/05 06:58:08;;;;;;;8.63;3.40;;;;;;;3.00;71.85;98982.16;5058911;28;20065;-87
2022/01/05 07:00:36;;;;;;;10.00;3.25;;;;;;;2.95;72.19;98967.66;5061438;28;20075;-87
2022/01/05 07:03:04;;;;;;;7.32;2.92;;;;;;;3.03;72.11;98970.53;5072689;28;20059;-88
2022/01/05 07:05:32;;;;;;;10.32;3.65;;;;;;;3.17;71.36;98969.75;5079847;28;20413;-87
2022/01/05 07:08:00;;;;;;;11.20;3.50;;;;;;;3.37;70.87;98974.06;5078481;28;20059;-86
2022/01/05 07:10:28;;;;;;;13.15;3.83;;;;;;;3.40;70.80;98968.78;5071645;28;20482;-88
2022/01/05 07:12:55;;;;;;;8.68;3.47;;;;;;;3.36;70.42;98978.78;5059173;28;20110;-88
2022/01/05 07:15:25;;;;;;;12.07;3.75;;;;;;;3.38;70.74;98971.03;5060294;28;20056;-86
2022/01/05 07:17:52;;;;;;;8.98;3.90;;;;;;;3.42;70.33;98983.06;5061621;28;20453;-87
2022/01/05 07:20:19;;;;;;;10.82;3.65;;;;;;;3.31;70.77;98992.59;5061725;28;20045;-86
2022/01/05 07:22:53;;;;;;;12.07;3.88;;;;;;;3.38;70.38;98972.94;5078298;28;20060;-86
2022/01/05 07:25:20;;;;;;;9.23;3.17;;;;;;;3.37;72.28;98980.38;5076779;28;20048;-81
2022/01/05 07:27:47;;;;;;;12.15;3.88;;;;;;;3.50;70.58;98975.22;5057259;28;20075;-81
2022/01/05 07:30:15;;;;;;;13.68;4.05;;;;;;;3.45;70.11;98976.13;5055704;28;20064;-83
2022/01/05 07:32:43;;;;;;;9.88;3.53;;;;;;;3.45;70.12;98976.94;5055961;28;20486;-84
2022/01/05 07:35:11;;;;;;;9.63;3.65;;;;;;;3.47;69.58;98984.91;5056027;28;20049;-86
2022/01/05 07:37:38;;;;;;;13.35;3.58;;;;;;;3.52;69.86;98987.53;5057405;28;20057;-88
2022/01/05 07:40:09;;;;;;;9.77;3.75;;;;;;;3.49;70.26;98982.66;5054310;28;20052;-85
2022/01/05 07:42:36;;;;;;;13.02;4.10;;;;;;;3.37;69.90;98991.41;5056311;28;20052;-85
2022/01/05 07:45:05;;;;;;;10.70;4.78;;;;;;;2.98;71.79;98991.81;5056537;28;20049;-84
2022/01/05 07:47:34;;;;;;;9.55;4.70;;;;;;;3.16;71.13;98995.63;5057296;28;20418;-86
2022/01/05 07:50:03;;;;;;;11.43;4.63;;;;;;;3.17;71.64;98997.25;5055697;28;20049;-86
2022/01/05 07:52:31;;;;;;;13.27;4.35;;;;;;;3.22;71.31;98999.94;5056913;28;20497;-86
2022/01/05 07:55:01;;;;;;;9.57;3.83;;;;;;;3.39;70.52;99002.09;5055649;28;20060;-87
2022/01/05 07:57:28;;;;;;;10.75;4.15;;;;;;;3.16;71.22;99006.66;5056778;28;20049;-84
2022/01/05 07:59:56;;;;;;;11.40;4.10;;;;;;;3.36;71.00;99021.97;5055702;28;20057;-85
2022/01/05 08:02:23;;;;;;;13.15;4.05;;;;;;;3.36;71.29;99032.97;5055853;28;20048;-86
2022/01/05 08:04:51;;;;;;;11.43;4.95;;;;;;;3.54;70.47;99040.34;5058029;28;20478;-86
2022/01/05 08:07:20;;;;;;;10.50;5.03;;;;;;;3.40;70.52;99045.00;5059612;28;20049;-85
2022/01/05 08:09:47;;;;;;;11.88;4.90;;;;;;;3.50;70.99;99022.81;5057613;28;20045;-86
2022/01/05 08:12:14;;;;;;;12.57;4.22;;;;;;;3.79;69.77;99021.72;5057549;28;20068;-85
2022/01/05 08:14:42;;;;;;;9.32;3.92;;;;;;;3.73;69.72;99025.72;5058433;28;20053;-84
2022/01/05 08:17:09;;;;;;;9.20;4.47;;;;;;;3.68;69.73;99026.63;5059340;28;20045;-85
2022/01/05 08:19:36;;;;;;;10.65;4.30;;;;;;;3.78;69.70;99028.34;5059475;28;20425;-85
2022/01/05 08:22:04;;;;;;;12.35;4.70;;;;;;;3.94;69.78;99026.13;5059684;28;20498;-84
2022/01/05 08:24:33;;;;;;;18.10;7.68;;;;;;;3.92;69.09;99036.63;5059837;28;20044;-83
2022/01/05 08:27:00;;;;;;;18.58;5.90;;;;;;;4.07;68.35;99036.31;5058140;28;20127;-83
2022/01/05 08:29:27;;;;;;;13.57;6.60;;;;;;;3.96;69.08;99038.47;5060913;28;20064;-85
2022/01/05 08:31:55;;;;;;;16.95;5.88;;;;;;;3.95;69.36;99036.00;5059006;28;20053;-85
2022/01/05 08:34:22;;;;;;;21.17;7.68;;;;;;;3.86;69.20;99035.91;5060929;28;20049;-84
2022/01/05 08:36:50;;;;;;;18.38;7.75;;;;;;;3.97;68.86;99050.28;5058851;28;20049;-85
2022/01/05 08:39:18;;;;;;;12.60;5.28;;;;;;;4.09;68.32;99038.78;5059246;28;20072;-84
2022/01/05 08:41:47;;;;;;;18.50;8.07;;;;;;;4.13;68.44;99045.31;5058340;28;20052;-82
2022/01/05 08:44:14;;;;;;;12.20;4.63;;;;;;;4.36;67.90;99041.50;5057773;28;20052;-83
2022/01/05 08:46:42;;;;;;;8.88;3.72;;;;;;;4.44;67.58;99051.00;5059433;28;20064;-86
2022/01/05 08:49:11;;;;;;;9.07;3.97;;;;;;;4.40;67.50;99041.72;5060031;28;20509;-86
2022/01/05 08:51:38;;;;;;;11.90;4.27;;;;;;;4.20;67.96;99031.91;5063436;28;20063;-84
2022/01/05 08:54:09;;;;;;;12.63;3.60;;;;;;;4.53;66.91;99043.63;5059621;28;20495;-84
2022/01/05 08:56:37;;;;;;;13.13;4.18;;;;;;;4.33;67.21;99046.84;5056171;28;20053;-84
2022/01/05 08:59:07;;;;;;;16.70;4.82;;;;;;;4.46;67.67;99032.19;5056229;28;20041;-85
2022/01/05 09:01:34;;;;;;;10.68;3.92;;;;;;;4.51;67.61;99043.09;5056375;28;20052;-86
2022/01/05 09:04:01;;;;;;;10.80;3.63;;;;;;;4.51;67.99;99045.06;5056119;28;20049;-87
2022/01/05 09:06:29;;;;;;;10.60;3.85;;;;;;;4.53;67.94;99031.78;5055568;28;20410;-87
2022/01/05 09:08:56;;;;;;;12.93;4.28;;;;;;;4.31;68.39;99049.88;5058624;28;20057;-84
2022/01/05 09:11:24;;;;;;;12.02;4.32;;;;;;;4.56;67.38;99042.19;5063716;28;20045;-85
2022/01/05 09:13:51;;;;;;;11.90;4.90;;;;;;;4.47;68.40;99034.66;5051797;28;20045;-86
2022/01/05 09:16:21;;;;;;;16.05;4.57;;;;;;;4.79;67.83;99037.53;5059041;28;20056;-85
2022/01/05 09:18:48;;;;;;;;;;;;;;;4.62;68.14;99021.63;5059750;28;20053;-85
2022/01/05 09:21:15;;;;;;;12.02;4.30;;;;;;;4.78;67.70;99016.59;5060033;28;19925;-85
2022/01/05 09:23:43;;;;;;;12.32;4.45;;;;;;;4.74;67.55;99021.91;5058063;28;20053;-86
2022/01/05 09:26:10;;;;;;;10.95;4.45;;;;;;;4.48;68.74;99036.28;5058555;28;20375;-86
2022/01/05 09:28:42;;;;;;;8.52;3.72;;;;;;;4.52;68.56;99035.66;5058414;28;20053;-87
2022/01/05 09:31:10;;;;;;;9.55;3.97;;;;;;;4.67;67.41;99041.66;5058965;28;20738;-87
2022/01/05 09:33:39;;;;;;;11.73;5.22;;;;;;;4.46;68.58;99033.00;5058150;28;20053;-84
2022/01/05 09:36:12;;;;;;;13.70;4.75;;;;;;;4.39;68.73;99038.16;5058405;28;20060;-85
2022/01/05 09:44:08;;;;;;;9.88;4.88;;;;;;;4.47;68.78;99042.94;5065825;28;20064;-86
2022/01/05 09:46:56;;;;;;;13.93;4.97;;;;;;;4.29;69.05;99043.88;5059080;28;20490;-84
2022/01/05 09:49:32;;;;;;;12.82;4.95;;;;;;;4.32;69.36;99051.50;5059023;28;20045;-82
2022/01/05 09:52:04;;;;;;;10.38;5.30;;;;;;;4.52;69.18;99041.19;5061037;28;20049;-85
2022/01/05 09:54:34;;;;;;;14.38;6.57;;;;;;;4.57;69.52;99057.59;5058507;28;20413;-86
2022/01/05 09:57:03;;;;;;;13.27;5.18;;;;;;;4.91;68.81;99054.34;5059221;28;20059;-85
2022/01/05 09:59:34;;;;;;;13.50;6.28;;;;;;;4.84;68.53;99067.75;5060067;28;20393;-86
2022/01/05 10:02:02;;;;;;;14.38;5.22;;;;;;;4.59;69.32;99047.09;5059198;28;20536;-86
2022/01/05 10:04:31;;;;;;;12.52;5.65;;;;;;;4.62;69.46;99066.59;5058547;28;20055;-86
2022/01/05 10:06:58;;;;;;;12.67;5.37;;;;;;;4.69;69.40;99060.66;5059736;28;20061;-85
2022/01/05 10:09:26;;;;;;;12.13;4.95;;;;;;;4.85;69.21;99048.16;5057955;28;20483;-84
2022/01/05 10:11:53;;;;;;;8.90;5.05;;;;;;;4.81;69.20;99058.16;5058028;28;20060;-84
2022/01/05 10:14:20;;;;;;;11.38;4.82;;;;;;;5.42;67.33;99055.88;5059690;28;20052;-83
2022/01/05 10:17:03;;;;;;;8.98;4.60;;;;;;;5.09;67.97;99049.78;5056748;28;20076;-85
2022/01/05 10:19:32;;;;;;;12.52;5.55;;;;;;;4.63;69.86;99081.19;5057019;28;20056;-84
2022/01/05 10:22:00;;;;;;;12.98;6.25;;;;;;;4.60;70.15;99065.25;5057421;28;20053;-85
2022/01/05 10:24:48;;;;;;;12.15;5.45;;;;;;;4.36;71.18;99066.31;5058415;28;20057;-83
2022/01/05 10:27:17;;;;;;;18.63;6.32;;;;;;;4.40;72.04;99044.47;5058745;28;20052;-84
2022/01/05 10:29:56;;;;;;;12.73;5.78;;;;;;;4.66;70.71;99039.19;5059680;28;20063;-86
2022/01/05 10:32:23;;;;;;;14.23;5.82;;;;;;;4.07;72.87;99044.59;5051631;28;20470;-85
2022/01/05 10:35:04;;;;;;;16.13;6.18;;;;;;;4.51;72.44;99045.06;5057796;28;20048;-86
2022/01/05 10:37:32;;;;;;;14.40;6.20;;;;;;;4.53;73.05;99042.81;5048601;28;20402;-84
2022/01/05 10:40:13;;;;;;;15.43;6.50;;;;;;;4.29;76.58;99051.31;5057041;28;20044;-84
2022/01/05 10:42:42;;;;;;;15.45;6.38;;;;;;;4.26;76.27;99052.72;5052557;28;20056;-85
2022/01/05 10:45:13;;;;;;;17.73;7.30;;;;;;;3.85;79.05;99043.34;5055782;28;20059;-83
2022/01/05 10:47:41;;;;;;;;;;;;;;;3.95;81.64;99069.06;5058919;28;20060;-84
2022/01/05 10:50:20;;;;;;;19.20;8.05;;;;;;;3.58;81.50;99057.91;5060229;28;19928;-84
2022/01/05 10:52:57;;;;;;;16.27;7.45;;;;;;;3.78;82.08;99045.72;5059011;28;20498;-85
2022/01/05 10:55:26;;;;;;;17.25;7.53;;;;;;;3.68;80.33;99050.59;5049662;28;20053;-83
2022/01/05 10:57:56;;;;;;;15.52;6.57;;;;;;;3.69;80.13;99052.22;5056873;28;20075;-85
2022/01/05 11:00:35;;;;;;;15.37;5.87;;;;;;;3.95;79.39;99058.88;5058881;28;20056;-84
2022/01/05 11:03:19;;;;;;;19.87;5.57;;;;;;;3.93;78.99;99060.31;5057417;28;20060;-83
2022/01/05 11:06:02;;;;;;;11.50;5.97;;;;;;;3.88;80.00;99061.22;5057669;28;20475;-84
2022/01/05 11:08:31;;;;;;;13.10;5.55;;;;;;;3.87;79.24;99059.59;5056724;28;20052;-83
2022/01/05 11:10:59;;;;;;;12.48;5.55;;;;;;;4.00;78.85;99045.00;5056230;28;20060;-86
2022/01/05 11:13:27;;;;;;;12.80;4.70;;;;;;;4.18;78.96;99051.53;5056372;28;20068;-84
2022/01/05 11:15:58;;;;;;;11.80;5.65;;;;;;;3.96;78.98;99057.75;5057545;28;20060;-85
2022/01/05 11:18:30;;;;;;;10.98;4.10;;;;;;;4.31;78.85;99049.09;5059338;28;20049;-87
2022/01/05 11:21:05;;;;;;;11.73;5.38;;;;;;;4.28;77.39;99053.25;5056560;28;20060;-86
2022/01/05 11:23:35;;;;;;;12.60;5.32;;;;;;;4.15;78.12;99051.31;5054752;28;20068;-84
2022/01/05 11:26:03;;;;;;;14.30;5.65;;;;;;;3.94;79.88;99064.69;5055452;28;20053;-83
2022/01/05 11:28:31;;;;;;;13.93;5.82;;;;;;;3.93;80.55;99063.06;5056838;28;20049;-83
2022/01/05 11:30:59;;;;;;;12.65;6.25;;;;;;;3.70;82.74;99073.13;5056118;28;20402;-84
2022/01/05 11:33:26;;;;;;;17.98;6.93;;;;;;;3.66;86.89;99078.44;5054018;28;20064;-85
2022/01/05 11:35:54;;;;;;;19.17;6.47;;;;;;;3.26;87.52;99094.53;5054668;28;20048;-83
2022/01/05 11:38:23;;;;;;;17.83;7.82;;;;;;;3.20;90.60;99090.22;5056070;28;20084;-85
2022/01/05 11:40:54;;;;;;;18.42;8.02;;;;;;;3.13;92.23;99084.25;5054403;28;20060;-84
2022/01/05 11:43:24;;;;;;;21.45;9.35;;;;;;;3.03;92.55;99085.25;5047908;28;21525;-85
2022/01/05 11:45:52;;;;;;;22.25;9.30;;;;;;;3.03;93.29;99099.00;5054862;28;20041;-85
2022/01/05 11:48:27;;;;;;;19.10;8.80;;;;;;;3.00;93.90;99111.44;5055741;28;20048;-84